createdAt,value
2023-03-02T00:00:32.130Z,1023.1
2023-03-02T00:01:47.462Z,1023.1
2023-03-02T00:03:03.649Z,1023
2023-03-02T00:04:19.706Z,1023.1
2023-03-02T00:05:36.014Z,1023.1
2023-03-02T00:06:52.205Z,1023.1
2023-03-02T00:08:08.398Z,1023
2023-03-02T00:09:24.578Z,1023
2023-03-02T00:10:40.786Z,1023
2023-03-02T00:11:56.973Z,1023
2023-03-02T00:13:13.042Z,1023
2023-03-02T00:14:29.338Z,1023.1
2023-03-02T00:15:45.418Z,1023
2023-03-02T00:17:01.725Z,1023
2023-03-02T00:18:16.934Z,1023.1
2023-03-02T00:19:32.998Z,1023.1
2023-03-02T00:20:49.176Z,1023.1
2023-03-02T00:22:05.494Z,1023
2023-03-02T00:23:21.678Z,1023.1
2023-03-02T00:24:37.870Z,1023
2023-03-02T00:25:54.060Z,1023
2023-03-02T00:27:10.248Z,1023.1
2023-03-02T00:28:26.437Z,1023.1
2023-03-02T00:29:42.504Z,1023.1
2023-03-02T00:30:58.695Z,1023
2023-03-02T00:32:15.001Z,1023.1
2023-03-02T00:33:31.196Z,1023
2023-03-02T00:34:46.407Z,1023
2023-03-02T00:36:02.589Z,1023
2023-03-02T00:37:18.777Z,1023
2023-03-02T00:38:34.967Z,1023
2023-03-02T00:39:51.146Z,1023
2023-03-02T00:41:07.347Z,1023
2023-03-02T00:42:23.528Z,1023
2023-03-02T00:43:39.714Z,1022.9
2023-03-02T00:44:55.907Z,1023
2023-03-02T00:46:12.097Z,1022.9
2023-03-02T00:47:28.295Z,1022.9
2023-03-02T00:48:44.481Z,1022.9
2023-03-02T00:50:00.659Z,1022.9
2023-03-02T00:51:15.735Z,1022.9
2023-03-02T00:52:31.928Z,1022.9
2023-03-02T00:53:48.128Z,1022.9
2023-03-02T00:55:04.431Z,1022.9
2023-03-02T00:56:20.623Z,1022.9
2023-03-02T00:57:36.819Z,1022.9
2023-03-02T00:58:52.882Z,1022.9
2023-03-02T01:00:09.199Z,1022.9
2023-03-02T01:01:25.264Z,1023
2023-03-02T01:02:41.583Z,1022.9
2023-03-02T01:03:57.774Z,1023
2023-03-02T01:05:13.953Z,1023
2023-03-02T01:06:30.002Z,1022.9
2023-03-02T01:07:45.346Z,1022.9
2023-03-02T01:09:01.535Z,1022.9
2023-03-02T01:10:17.719Z,1022.9
2023-03-02T01:11:33.922Z,1022.9
2023-03-02T01:12:50.111Z,1022.9
2023-03-02T01:14:06.284Z,1022.9
2023-03-02T01:15:22.490Z,1022.9
2023-03-02T01:16:38.679Z,1022.8
2023-03-02T01:17:54.851Z,1022.9
2023-03-02T01:19:11.058Z,1022.8
2023-03-02T01:20:27.095Z,1022.8
2023-03-02T01:21:43.419Z,1022.8
2023-03-02T01:22:59.477Z,1022.8
2023-03-02T01:24:14.820Z,1022.8
2023-03-02T01:25:30.866Z,1022.8
2023-03-02T01:26:47.066Z,1022.8
2023-03-02T01:28:03.381Z,1022.8
2023-03-02T01:29:19.584Z,1022.8
2023-03-02T01:30:35.762Z,1022.7
2023-03-02T01:31:51.827Z,1022.7
2023-03-02T01:33:08.155Z,1022.7
2023-03-02T01:34:24.340Z,1022.7
2023-03-02T01:35:40.534Z,1022.7
2023-03-02T01:36:56.713Z,1022.7
2023-03-02T01:38:12.893Z,1022.7
2023-03-02T01:39:28.949Z,1022.7
2023-03-02T01:40:44.300Z,1022.7
2023-03-02T01:42:00.338Z,1022.7
2023-03-02T01:43:16.683Z,1022.7
2023-03-02T01:44:32.721Z,1022.7
2023-03-02T01:45:48.904Z,1022.7
2023-03-02T01:47:05.091Z,1022.7
2023-03-02T01:48:21.298Z,1022.7
2023-03-02T01:49:37.613Z,1022.7
2023-03-02T01:50:53.817Z,1022.7
2023-03-02T01:52:09.851Z,1022.6
2023-03-02T01:53:26.196Z,1022.6
2023-03-02T01:54:42.384Z,1022.5
2023-03-02T01:55:58.415Z,1022.6
2023-03-02T01:57:13.634Z,1022.5
2023-03-02T01:58:29.822Z,1022.5
2023-03-02T01:59:46.152Z,1022.5
2023-03-02T02:01:02.342Z,1022.5
2023-03-02T02:02:18.526Z,1022.6
2023-03-02T02:03:34.000Z,1022.6
2023-03-02T02:04:50.899Z,1022.5
2023-03-02T02:06:07.091Z,1022.5
2023-03-02T02:07:23.137Z,1022.4
2023-03-02T02:08:39.477Z,1022.4
2023-03-02T02:09:55.677Z,1022.5
2023-03-02T02:11:11.862Z,1022.4
2023-03-02T02:12:27.897Z,1022.4
2023-03-02T02:13:43.253Z,1022.3
2023-03-02T02:14:59.440Z,1022.4
2023-03-02T02:16:15.623Z,1022.4
2023-03-02T02:17:31.668Z,1022.3
2023-03-02T02:18:48.014Z,1022.3
2023-03-02T02:20:04.203Z,1022.3
2023-03-02T02:21:20.376Z,1022.4
2023-03-02T02:22:36.578Z,1022.3
2023-03-02T02:23:52.608Z,1022.3
2023-03-02T02:25:08.953Z,1022.4
2023-03-02T02:26:25.143Z,1022.4
2023-03-02T02:27:41.332Z,1022.5
2023-03-02T02:28:57.511Z,1022.4
2023-03-02T02:30:12.579Z,1022.4
2023-03-02T02:31:28.762Z,1022.3
2023-03-02T02:32:44.945Z,1022.3
2023-03-02T02:34:01.301Z,1022.3
2023-03-02T02:35:17.483Z,1022.3
2023-03-02T02:36:33.665Z,1022.3
2023-03-02T02:37:49.705Z,1022.3
2023-03-02T02:39:06.067Z,1022.4
2023-03-02T02:40:22.096Z,1022.3
2023-03-02T02:41:38.439Z,1022.3
2023-03-02T02:42:54.623Z,1022.3
2023-03-02T02:44:10.803Z,1022.3
2023-03-02T02:45:27.002Z,1022.4
2023-03-02T02:46:42.205Z,1022.3
2023-03-02T02:47:58.384Z,1022.3
2023-03-02T02:49:14.578Z,1022.3
2023-03-02T02:50:30.770Z,1022.3
2023-03-02T02:51:46.958Z,1022.3
2023-03-02T02:53:03.149Z,1022.3
2023-03-02T02:54:19.349Z,1022.3
2023-03-02T02:55:35.520Z,1022.3
2023-03-02T02:56:51.570Z,1022.3
2023-03-02T02:58:07.906Z,1022.2
2023-03-02T02:59:23.930Z,1022.2
2023-03-02T03:00:40.293Z,1022.2
2023-03-02T03:01:56.312Z,1022.3
2023-03-02T03:03:11.523Z,1022.3
2023-03-02T03:04:27.865Z,1022.3
2023-03-02T03:05:44.053Z,1022.3
2023-03-02T03:07:00.257Z,1022.3
2023-03-02T03:08:16.429Z,1022.3
2023-03-02T03:09:32.628Z,1022.3
2023-03-02T03:10:48.653Z,1022.3
2023-03-02T03:12:05.007Z,1022.2
2023-03-02T03:13:21.046Z,1022.2
2023-03-02T03:14:36.250Z,1022.2
2023-03-02T03:15:52.438Z,1022.3
2023-03-02T03:17:08.784Z,1022.2
2023-03-02T03:18:24.971Z,1022.3
2023-03-02T03:19:41.171Z,1022.3
2023-03-02T03:20:57.350Z,1022.3
2023-03-02T03:22:13.542Z,1022.2
2023-03-02T03:23:29.725Z,1022.2
2023-03-02T03:24:45.760Z,1022.3
2023-03-02T03:26:02.104Z,1022.2
2023-03-02T03:27:18.303Z,1022.2
2023-03-02T03:28:34.488Z,1022.2
2023-03-02T03:29:50.679Z,1022.2
2023-03-02T03:31:05.716Z,1022.2
2023-03-02T03:32:22.065Z,1022.2
2023-03-02T03:33:38.107Z,1022.2
2023-03-02T03:34:54.459Z,1022.2
2023-03-02T03:36:10.475Z,1022.2
2023-03-02T03:37:26.838Z,1022.2
2023-03-02T03:38:42.865Z,1022.3
2023-03-02T03:39:59.040Z,1022.3
2023-03-02T03:41:15.242Z,1022.2
2023-03-02T03:42:31.584Z,1022.2
2023-03-02T03:43:47.781Z,1022.1
2023-03-02T03:45:03.972Z,1022.2
2023-03-02T03:46:20.169Z,1022.2
2023-03-02T03:47:35.371Z,1022.2
2023-03-02T03:48:51.386Z,1022.1
2023-03-02T03:50:07.739Z,1022.2
2023-03-02T03:51:23.929Z,1022.1
2023-03-02T03:52:40.114Z,1022.2
2023-03-02T03:53:56.132Z,1022.2
2023-03-02T03:55:12.504Z,1022.3
2023-03-02T03:56:28.683Z,1022.2
2023-03-02T03:57:44.884Z,1022.2
2023-03-02T03:59:01.068Z,1022.1
2023-03-02T04:00:17.254Z,1022.2
2023-03-02T04:01:33.266Z,1022.2
2023-03-02T04:02:49.623Z,1022.2
2023-03-02T04:04:04.678Z,1022.2
2023-03-02T04:05:20.866Z,1022.2
2023-03-02T04:06:37.045Z,1022.2
2023-03-02T04:07:53.406Z,1022.1
2023-03-02T04:09:09.590Z,1022.1
2023-03-02T04:10:25.791Z,1022.1
2023-03-02T04:11:41.979Z,1022.1
2023-03-02T04:12:58.168Z,1022
2023-03-02T04:14:14.347Z,1022
2023-03-02T04:15:30.547Z,1022
2023-03-02T04:16:46.567Z,1022
2023-03-02T04:18:02.742Z,1022
2023-03-02T04:19:19.108Z,1022
2023-03-02T04:20:34.313Z,1022.1
2023-03-02T04:21:50.327Z,1022.1
2023-03-02T04:23:06.696Z,1022.1
2023-03-02T04:24:22.880Z,1022.1
2023-03-02T04:25:39.074Z,1022.1
2023-03-02T04:26:55.094Z,1022
2023-03-02T04:28:11.440Z,1022.1
2023-03-02T04:29:27.647Z,1022.1
2023-03-02T04:30:43.654Z,1022.1
2023-03-02T04:31:59.844Z,1022.1
2023-03-02T04:33:16.028Z,1022.1
2023-03-02T04:34:32.221Z,1022.1
2023-03-02T04:35:48.574Z,1022.1
2023-03-02T04:37:03.605Z,1022.1
2023-03-02T04:38:19.982Z,1022.1
2023-03-02T04:39:36.164Z,1022.1
2023-03-02T04:40:52.348Z,1022.2
2023-03-02T04:42:08.360Z,1022.2
2023-03-02T04:43:24.743Z,1022.1
2023-03-02T04:44:40.930Z,1022.2
2023-03-02T04:45:57.122Z,1022.3
2023-03-02T04:47:13.304Z,1022.2
2023-03-02T04:48:29.481Z,1022.2
2023-03-02T04:49:45.507Z,1022.3
2023-03-02T04:51:01.868Z,1022.3
2023-03-02T04:52:18.068Z,1022.4
2023-03-02T04:53:33.256Z,1022.3
2023-03-02T04:54:49.446Z,1022.3
2023-03-02T04:56:05.464Z,1022.4
2023-03-02T04:57:21.656Z,1022.3
2023-03-02T04:58:38.031Z,1022.4
2023-03-02T04:59:54.217Z,1022.3
2023-03-02T05:01:10.409Z,1022.3
2023-03-02T05:02:26.410Z,1022.3
2023-03-02T05:03:42.774Z,1022.3
2023-03-02T05:04:58.790Z,1022.3
2023-03-02T05:06:15.149Z,1022.1
2023-03-02T05:07:31.346Z,1022.2
2023-03-02T05:08:47.348Z,1022.2
2023-03-02T05:10:03.853Z,1022.2
2023-03-02T05:11:20.037Z,1022.1
2023-03-02T05:12:36.031Z,1022.1
2023-03-02T05:13:52.420Z,1022.1
2023-03-02T05:15:08.594Z,1022.1
2023-03-02T05:16:24.786Z,1022.1
2023-03-02T05:17:40.975Z,1022.1
2023-03-02T05:18:57.178Z,1022
2023-03-02T05:20:13.355Z,1022
2023-03-02T05:21:29.368Z,1022.1
2023-03-02T05:22:45.736Z,1022.1
2023-03-02T05:24:01.915Z,1022.1
2023-03-02T05:25:18.113Z,1022.1
2023-03-02T05:26:33.316Z,1022.1
2023-03-02T05:27:49.317Z,1022.2
2023-03-02T05:29:05.693Z,1022.2
2023-03-02T05:30:21.888Z,1022.2
2023-03-02T05:31:38.070Z,1022.2
2023-03-02T05:32:54.085Z,1022.2
2023-03-02T05:34:10.462Z,1022.2
2023-03-02T05:35:26.447Z,1022.2
2023-03-02T05:36:42.840Z,1022.1
2023-03-02T05:37:59.014Z,1022.2
2023-03-02T05:39:15.209Z,1022.2
2023-03-02T05:40:31.396Z,1022.2
2023-03-02T05:41:47.592Z,1022.2
2023-03-02T05:43:02.604Z,1022.2
2023-03-02T05:44:18.976Z,1022.2
2023-03-02T05:45:35.166Z,1022.2
2023-03-02T05:46:51.368Z,1022.1
2023-03-02T05:48:07.369Z,1022.2
2023-03-02T05:49:23.734Z,1022.2
2023-03-02T05:50:39.736Z,1022.2
2023-03-02T05:51:56.109Z,1022.2
2023-03-02T05:53:12.309Z,1022.2
2023-03-02T05:54:28.497Z,1022.1
2023-03-02T05:55:44.690Z,1022.2
2023-03-02T05:57:00.878Z,1022.1
2023-03-02T05:58:17.063Z,1022.1
2023-03-02T05:59:32.080Z,1022.2
2023-03-02T06:00:48.463Z,1022.1
2023-03-02T06:02:04.648Z,1022.2
2023-03-02T06:03:20.830Z,1022.2
2023-03-02T06:04:37.034Z,1022.3
2023-03-02T06:05:53.209Z,1022.2
2023-03-02T06:07:09.399Z,1022.2
2023-03-02T06:08:25.594Z,1022.3
2023-03-02T06:09:41.788Z,1022.3
2023-03-02T06:10:57.970Z,1022.3
2023-03-02T06:12:14.171Z,1022.3
2023-03-02T06:13:30.164Z,1022.3
2023-03-02T06:14:46.531Z,1022.3
2023-03-02T06:16:01.744Z,1022.4
2023-03-02T06:17:17.929Z,1022.4
2023-03-02T06:18:34.133Z,1022.4
2023-03-02T06:19:50.317Z,1022.4
2023-03-02T06:21:06.305Z,1022.3
2023-03-02T06:22:22.685Z,1022.4
2023-03-02T06:23:38.874Z,1022.4
2023-03-02T06:24:54.879Z,1022.3
2023-03-02T06:26:11.267Z,1022.4
2023-03-02T06:27:27.256Z,1022.3
2023-03-02T06:28:43.438Z,1022.3
2023-03-02T06:29:59.831Z,1022.3
2023-03-02T06:31:15.823Z,1022.3
2023-03-02T06:32:31.227Z,1022.3
2023-03-02T06:33:47.408Z,1022.3
2023-03-02T06:35:03.596Z,1022.3
2023-03-02T06:36:19.788Z,1022.3
2023-03-02T06:37:35.981Z,1022.3
2023-03-02T06:38:52.176Z,1022.3
2023-03-02T06:40:08.352Z,1022.4
2023-03-02T06:41:24.342Z,1022.3
2023-03-02T06:42:40.730Z,1022.2
2023-03-02T06:43:56.915Z,1022.3
2023-03-02T06:45:13.122Z,1022.3
2023-03-02T06:46:29.309Z,1022.3
2023-03-02T06:47:45.280Z,1022.3
2023-03-02T06:49:00.702Z,1022.4
2023-03-02T06:50:16.680Z,1022.4
2023-03-02T06:51:33.068Z,1022.5
2023-03-02T06:52:49.259Z,1022.4
2023-03-02T06:54:05.465Z,1022.4
2023-03-02T06:55:21.652Z,1022.4
2023-03-02T06:56:37.824Z,1022.4
2023-03-02T06:57:53.805Z,1022.5
2023-03-02T06:59:10.014Z,1022.5
2023-03-02T07:00:26.408Z,1022.4
2023-03-02T07:01:42.598Z,1022.5
2023-03-02T07:02:58.577Z,1022.4
2023-03-02T07:04:14.974Z,1022.5
2023-03-02T07:05:29.971Z,1022.4
2023-03-02T07:06:46.355Z,1022.5
2023-03-02T07:08:02.556Z,1022.5
2023-03-02T07:09:18.743Z,1022.5
2023-03-02T07:10:34.922Z,1022.5
2023-03-02T07:11:51.119Z,1022.5
2023-03-02T07:13:07.302Z,1022.6
2023-03-02T07:14:23.493Z,1022.5
2023-03-02T07:15:39.481Z,1022.5
2023-03-02T07:16:55.879Z,1022.5
2023-03-02T07:18:12.056Z,1022.5
2023-03-02T07:19:28.253Z,1022.5
2023-03-02T07:20:44.434Z,1022.5
2023-03-02T07:21:59.657Z,1022.5
2023-03-02T07:23:15.636Z,1022.6
2023-03-02T07:24:32.037Z,1022.6
2023-03-02T07:25:48.214Z,1022.6
2023-03-02T07:27:04.402Z,1022.5
2023-03-02T07:28:20.390Z,1022.5
2023-03-02T07:29:35.589Z,1022.5
2023-03-02T07:30:51.998Z,1022.5
2023-03-02T07:32:08.183Z,1022.5
2023-03-02T07:33:24.366Z,1022.5
2023-03-02T07:34:40.560Z,1022.5
2023-03-02T07:35:56.545Z,1022.6
2023-03-02T07:37:12.718Z,1022.6
2023-03-02T07:38:29.122Z,1022.6
2023-03-02T07:39:45.320Z,1022.6
2023-03-02T07:41:01.286Z,1022.6
2023-03-02T07:42:17.479Z,1022.6
2023-03-02T07:43:33.888Z,1022.6
2023-03-02T07:44:49.852Z,1022.6
2023-03-02T07:46:05.285Z,1022.5
2023-03-02T07:47:21.467Z,1022.6
2023-03-02T07:48:37.433Z,1022.6
2023-03-02T07:49:53.844Z,1022.6
2023-03-02T07:51:10.039Z,1022.6
2023-03-02T07:52:26.014Z,1022.6
2023-03-02T07:53:42.406Z,1022.6
2023-03-02T07:54:58.609Z,1022.6
2023-03-02T07:56:14.790Z,1022.6
2023-03-02T07:57:30.979Z,1022.6
2023-03-02T07:58:47.174Z,1022.6
2023-03-02T08:00:03.135Z,1022.6
2023-03-02T08:01:19.549Z,1022.5
2023-03-02T08:02:34.746Z,1022.6
2023-03-02T08:03:50.970Z,1022.6
2023-03-02T08:05:07.141Z,1022.6
2023-03-02T08:06:23.332Z,1022.6
2023-03-02T08:07:39.296Z,1022.6
2023-03-02T08:08:55.694Z,1022.6
2023-03-02T08:10:11.896Z,1022.6
2023-03-02T08:11:28.072Z,1022.6
2023-03-02T08:12:44.277Z,1022.6
2023-03-02T08:14:00.452Z,1022.5
2023-03-02T08:15:16.423Z,1022.5
2023-03-02T08:16:32.833Z,1022.5
2023-03-02T08:17:49.035Z,1022.4
2023-03-02T08:19:04.234Z,1022.5
2023-03-02T08:20:20.428Z,1022.4
2023-03-02T08:21:36.600Z,1022.5
2023-03-02T08:22:52.799Z,1022.5
2023-03-02T08:24:08.982Z,1022.4
2023-03-02T08:25:25.184Z,1022.5
2023-03-02T08:26:41.376Z,1022.5
2023-03-02T08:27:57.339Z,1022.5
2023-03-02T08:29:13.737Z,1022.5
2023-03-02T08:30:29.710Z,1022.5
2023-03-02T08:31:45.895Z,1022.5
2023-03-02T08:33:02.314Z,1022.5
2023-03-02T08:34:18.498Z,1022.5
2023-03-02T08:35:33.481Z,1022.5
2023-03-02T08:36:49.902Z,1022.5
2023-03-02T08:38:06.080Z,1022.5
2023-03-02T08:39:22.281Z,1022.4
2023-03-02T08:40:38.461Z,1022.5
2023-03-02T08:41:54.652Z,1022.5
2023-03-02T08:43:10.844Z,1022.5
2023-03-02T08:44:26.800Z,1022.5
2023-03-02T08:45:43.216Z,1022.5
2023-03-02T08:46:59.405Z,1022.4
2023-03-02T08:48:15.601Z,1022.4
2023-03-02T08:49:31.779Z,1022.4
2023-03-02T08:50:47.984Z,1022.5
2023-03-02T08:52:03.176Z,1022.4
2023-03-02T08:53:19.151Z,1022.5
2023-03-02T08:54:35.560Z,1022.5
2023-03-02T08:55:51.520Z,1022.4
2023-03-02T08:57:07.945Z,1022.4
2023-03-02T08:58:24.130Z,1022.4
2023-03-02T08:59:40.309Z,1022.3
2023-03-02T09:00:56.503Z,1022.3
2023-03-02T09:02:12.692Z,1022.4
2023-03-02T09:03:28.652Z,1022.3
2023-03-02T09:04:45.070Z,1022.3
2023-03-02T09:06:01.270Z,1022.3
2023-03-02T09:07:17.442Z,1022.3
2023-03-02T09:08:32.413Z,1022.2
2023-03-02T09:09:48.608Z,1022.2
2023-03-02T09:11:05.020Z,1022.2
2023-03-02T09:12:20.986Z,1022.2
2023-03-02T09:13:37.405Z,1022.2
2023-03-02T09:14:53.591Z,1022.1
2023-03-02T09:16:09.533Z,1022.1
2023-03-02T09:17:25.971Z,1022.2
2023-03-02T09:18:42.151Z,1022.1
2023-03-02T09:19:58.351Z,1022.2
2023-03-02T09:21:14.533Z,1022.1
2023-03-02T09:22:30.477Z,1022.1
2023-03-02T09:23:46.907Z,1022.1
2023-03-02T09:25:02.109Z,1022.1
2023-03-02T09:26:18.296Z,1022.1
2023-03-02T09:27:34.486Z,1022.1
2023-03-02T09:28:50.431Z,1022.1
2023-03-02T09:30:06.613Z,1022.1
2023-03-02T09:31:22.814Z,1022.2
2023-03-02T09:32:39.241Z,1022.1
2023-03-02T09:33:55.419Z,1022.2
2023-03-02T09:35:11.374Z,1022.2
2023-03-02T09:36:27.549Z,1022.1
2023-03-02T09:37:43.987Z,1022.2
2023-03-02T09:39:00.172Z,1022.1
2023-03-02T09:40:16.367Z,1022.2
2023-03-02T09:41:31.568Z,1022.2
2023-03-02T09:42:47.741Z,1022.2
2023-03-02T09:44:03.932Z,1022.1
2023-03-02T09:45:20.129Z,1022.1
2023-03-02T09:46:36.305Z,1022.1
2023-03-02T09:47:52.510Z,1022.1
2023-03-02T09:49:08.678Z,1022.1
2023-03-02T09:50:24.868Z,1022.1
2023-03-02T09:51:41.072Z,1022.1
2023-03-02T09:52:57.243Z,1022.1
2023-03-02T09:54:13.192Z,1022.1
2023-03-02T09:55:29.630Z,1022.1
2023-03-02T09:56:45.567Z,1022.1
2023-03-02T09:58:01.014Z,1022.2
2023-03-02T09:59:17.206Z,1022.2
2023-03-02T10:00:33.398Z,1022.2
2023-03-02T10:01:49.336Z,1022.2
2023-03-02T10:03:05.773Z,1022.2
2023-03-02T10:04:21.955Z,1022.2
2023-03-02T10:05:38.143Z,1022.2
2023-03-02T10:06:54.325Z,1022.3
2023-03-02T10:08:10.267Z,1022.3
2023-03-02T10:09:26.465Z,1022.3
2023-03-02T10:10:42.887Z,1022.2
2023-03-02T10:11:58.827Z,1022.3
2023-03-02T10:13:15.263Z,1022.3
2023-03-02T10:14:30.479Z,1022.3
2023-03-02T10:15:46.666Z,1022.3
2023-03-02T10:17:02.595Z,1022.2
2023-03-02T10:18:19.041Z,1022.2
2023-03-02T10:19:35.221Z,1022.2
2023-03-02T10:20:51.165Z,1022.2
2023-03-02T10:22:07.346Z,1022.3
2023-03-02T10:23:23.524Z,1022.2
2023-03-02T10:24:39.980Z,1022.2
2023-03-02T10:25:55.912Z,1022.2
2023-03-02T10:27:12.100Z,1022.2
2023-03-02T10:28:28.534Z,1022.2
2023-03-02T10:29:44.730Z,1022.2
2023-03-02T10:30:59.925Z,1022.2
2023-03-02T10:32:16.118Z,1022.2
2023-03-02T10:33:32.304Z,1022.2
2023-03-02T10:34:48.484Z,1022.2
2023-03-02T10:36:04.685Z,1022.2
2023-03-02T10:37:20.867Z,1022.2
2023-03-02T10:38:36.804Z,1022.2
2023-03-02T10:39:52.986Z,1022.2
2023-03-02T10:41:09.428Z,1022.2
2023-03-02T10:42:25.614Z,1022.2
2023-03-02T10:43:41.805Z,1022.1
2023-03-02T10:44:57.981Z,1022.2
2023-03-02T10:46:14.167Z,1022.2
2023-03-02T10:47:29.118Z,1022.1
2023-03-02T10:48:45.319Z,1022.1
2023-03-02T10:50:01.761Z,1022.1
2023-03-02T10:51:17.693Z,1022.1
2023-03-02T10:52:34.133Z,1022.1
2023-03-02T10:53:50.064Z,1022.1
2023-03-02T10:55:06.500Z,1022.1
2023-03-02T10:56:22.696Z,1022.1
2023-03-02T10:57:38.888Z,1022
2023-03-02T10:58:55.058Z,1022
2023-03-02T11:00:11.260Z,1022.1
2023-03-02T11:01:27.435Z,1022.1
2023-03-02T11:02:43.371Z,1022
2023-03-02T11:03:58.832Z,1022
2023-03-02T11:05:15.022Z,1022.1
2023-03-02T11:06:31.212Z,1022.1
2023-03-02T11:07:47.129Z,1022.1
2023-03-02T11:09:03.590Z,1022.1
2023-03-02T11:10:19.503Z,1022.1
2023-03-02T11:11:35.962Z,1022
2023-03-02T11:12:52.157Z,1022
2023-03-02T11:14:08.324Z,1022
2023-03-02T11:15:24.256Z,1022
2023-03-02T11:16:40.715Z,1022
2023-03-02T11:17:56.894Z,1022
2023-03-02T11:19:13.087Z,1022
2023-03-02T11:20:28.297Z,1022
2023-03-02T11:21:44.478Z,1021.9
2023-03-02T11:23:00.658Z,1021.9
2023-03-02T11:24:16.580Z,1021.9
2023-03-02T11:25:32.766Z,1021.8
2023-03-02T11:26:49.221Z,1021.8
2023-03-02T11:28:05.403Z,1021.9
2023-03-02T11:29:21.325Z,1021.8
2023-03-02T11:30:37.780Z,1021.8
2023-03-02T11:31:53.980Z,1021.8
2023-03-02T11:33:10.156Z,1021.8
2023-03-02T11:34:26.348Z,1021.8
2023-03-02T11:35:42.543Z,1021.8
2023-03-02T11:36:57.733Z,1021.8
2023-03-02T11:38:13.932Z,1021.8
2023-03-02T11:39:30.114Z,1021.8
2023-03-02T11:40:46.033Z,1021.7
2023-03-02T11:42:02.225Z,1021.7
2023-03-02T11:43:18.425Z,1021.7
2023-03-02T11:44:33.880Z,1021.8
2023-03-02T11:45:50.075Z,1021.7
2023-03-02T11:47:06.266Z,1021.7
2023-03-02T11:48:22.176Z,1021.8
2023-03-02T11:49:38.633Z,1021.7
2023-03-02T11:50:54.833Z,1021.7
2023-03-02T11:52:11.013Z,1021.8
2023-03-02T11:53:27.206Z,1021.7
2023-03-02T11:54:43.121Z,1021.7
2023-03-02T11:55:59.302Z,1021.7
2023-03-02T11:57:15.774Z,1021.7
2023-03-02T11:58:31.951Z,1021.7
2023-03-02T11:59:48.145Z,1021.6
2023-03-02T12:01:03.340Z,1021.6
2023-03-02T12:02:19.531Z,1021.6
2023-03-02T12:03:35.712Z,1021.6
2023-03-02T12:04:51.913Z,1021.6
2023-03-02T12:06:08.085Z,1021.5
2023-03-02T12:07:24.003Z,1021.5
2023-03-02T12:08:40.471Z,1021.5
2023-03-02T12:09:56.648Z,1021.5
2023-03-02T12:11:12.000Z,1021.5
2023-03-02T12:12:29.019Z,1021.5
2023-03-02T12:13:45.217Z,1021.5
2023-03-02T12:15:01.119Z,1021.5
2023-03-02T12:16:17.324Z,1021.4
2023-03-02T12:17:32.793Z,1021.5
2023-03-02T12:18:48.975Z,1021.3
2023-03-02T12:20:04.897Z,1021.4
2023-03-02T12:21:21.078Z,1021.3
2023-03-02T12:22:37.546Z,1021.3
2023-03-02T12:23:53.449Z,1021.2
2023-03-02T12:25:09.919Z,1021.2
2023-03-02T12:26:25.832Z,1021.2
2023-03-02T12:27:42.020Z,1021.2
2023-03-02T12:28:58.473Z,1021.1
2023-03-02T12:30:14.669Z,1021.1
2023-03-02T12:31:30.850Z,1021.1
2023-03-02T12:32:46.760Z,1021.1
2023-03-02T12:34:02.241Z,1021.1
2023-03-02T12:35:18.426Z,1021.1
2023-03-02T12:36:34.346Z,1021
2023-03-02T12:37:50.812Z,1021
2023-03-02T12:39:06.706Z,1021
2023-03-02T12:40:23.178Z,1020.9
2023-03-02T12:41:39.362Z,1020.9
2023-03-02T12:42:55.271Z,1020.8
2023-03-02T12:44:11.740Z,1020.9
2023-03-02T12:45:27.641Z,1020.9
2023-03-02T12:46:44.125Z,1020.8
2023-03-02T12:48:00.304Z,1020.9
2023-03-02T12:49:16.210Z,1020.8
2023-03-02T12:50:31.696Z,1020.9
2023-03-02T12:51:47.883Z,1020.9
2023-03-02T12:53:04.065Z,1020.9
2023-03-02T12:54:19.985Z,1020.9
2023-03-02T12:55:36.449Z,1020.9
2023-03-02T12:56:52.358Z,1020.8
2023-03-02T12:58:08.532Z,1020.8
2023-03-02T12:59:25.012Z,1020.8
2023-03-02T13:00:41.202Z,1020.8
2023-03-02T13:01:57.094Z,1020.7
2023-03-02T13:03:13.569Z,1020.8
2023-03-02T13:04:29.484Z,1020.7
2023-03-02T13:05:45.953Z,1020.7
2023-03-02T13:07:01.152Z,1020.7
2023-03-02T13:08:17.347Z,1020.7
2023-03-02T13:09:33.230Z,1020.7
2023-03-02T13:10:49.416Z,1020.7
2023-03-02T13:12:05.607Z,1020.7
2023-03-02T13:13:21.796Z,1020.7
2023-03-02T13:14:38.277Z,1020.7
2023-03-02T13:15:54.452Z,1020.7
2023-03-02T13:17:10.654Z,1020.8
2023-03-02T13:18:26.549Z,1020.8
2023-03-02T13:19:42.736Z,1020.8
2023-03-02T13:20:59.217Z,1020.8
2023-03-02T13:22:15.396Z,1020.8
2023-03-02T13:23:30.601Z,1020.8
2023-03-02T13:24:46.792Z,1020.8
2023-03-02T13:26:02.694Z,1020.8
2023-03-02T13:27:18.873Z,1020.8
2023-03-02T13:28:35.340Z,1020.8
2023-03-02T13:29:51.543Z,1020.8
2023-03-02T13:31:07.716Z,1020.8
2023-03-02T13:32:23.629Z,1020.8
2023-03-02T13:33:40.101Z,1020.7
2023-03-02T13:34:56.003Z,1020.8
2023-03-02T13:36:12.172Z,1020.8
2023-03-02T13:37:28.661Z,1020.7
2023-03-02T13:38:44.559Z,1020.8
2023-03-02T13:40:00.043Z,1020.8
2023-03-02T13:41:16.244Z,1020.7
2023-03-02T13:42:32.141Z,1020.8
2023-03-02T13:43:48.620Z,1020.8
2023-03-02T13:45:04.799Z,1020.7
2023-03-02T13:46:20.978Z,1020.7
2023-03-02T13:47:37.178Z,1020.6
2023-03-02T13:48:53.064Z,1020.6
2023-03-02T13:50:09.260Z,1020.7
2023-03-02T13:51:25.741Z,1020.6
2023-03-02T13:52:41.637Z,1020.6
2023-03-02T13:53:58.119Z,1020.6
2023-03-02T13:55:14.301Z,1020.6
2023-03-02T13:56:29.211Z,1020.5
2023-03-02T13:57:45.393Z,1020.5
2023-03-02T13:59:01.586Z,1020.5
2023-03-02T14:00:18.063Z,1020.5
2023-03-02T14:01:34.253Z,1020.5
2023-03-02T14:02:50.426Z,1020.5
2023-03-02T14:04:06.629Z,1020.4
2023-03-02T14:05:22.513Z,1020.4
2023-03-02T14:06:39.003Z,1020.5
2023-03-02T14:07:55.192Z,1020.4
2023-03-02T14:09:11.064Z,1020.4
2023-03-02T14:10:27.564Z,1020.4
2023-03-02T14:11:43.741Z,1020.4
2023-03-02T14:12:58.646Z,1020.4
2023-03-02T14:14:14.833Z,1020.4
2023-03-02T14:15:31.317Z,1020.4
2023-03-02T14:16:47.218Z,1020.3
2023-03-02T14:18:03.707Z,1020.4
2023-03-02T14:19:19.892Z,1020.3
2023-03-02T14:20:36.068Z,1020.4
2023-03-02T14:21:51.971Z,1020.3
2023-03-02T14:23:08.457Z,1020.3
2023-03-02T14:24:24.337Z,1020.3
2023-03-02T14:25:40.523Z,1020.3
2023-03-02T14:26:56.707Z,1020.3
2023-03-02T14:28:13.191Z,1020.2
2023-03-02T14:29:29.509Z,1020.2
2023-03-02T14:30:44.706Z,1020.2
2023-03-02T14:32:00.896Z,1020.2
2023-03-02T14:33:17.079Z,1020.2
2023-03-02T14:34:33.276Z,1020.1
2023-03-02T14:35:49.455Z,1020.1
2023-03-02T14:37:05.639Z,1020.1
2023-03-02T14:38:21.839Z,1020.1
2023-03-02T14:39:37.711Z,1020
2023-03-02T14:40:53.900Z,1020
2023-03-02T14:42:10.396Z,1020
2023-03-02T14:43:26.278Z,1020
2023-03-02T14:44:42.777Z,1020
2023-03-02T14:45:58.955Z,1020
2023-03-02T14:47:14.165Z,1020
2023-03-02T14:48:30.362Z,1019.9
2023-03-02T14:49:46.241Z,1020
2023-03-02T14:51:02.410Z,1019.9
2023-03-02T14:52:18.610Z,1020
2023-03-02T14:53:34.783Z,1020
2023-03-02T14:54:51.292Z,1020
2023-03-02T14:56:07.467Z,1020
2023-03-02T14:57:23.665Z,1019.9
2023-03-02T14:58:39.847Z,1020
2023-03-02T14:59:56.040Z,1019.9
2023-03-02T15:01:11.924Z,1019.9
2023-03-02T15:02:28.412Z,1019.9
2023-03-02T15:03:43.615Z,1019.9
2023-03-02T15:04:59.493Z,1019.9
2023-03-02T15:06:15.688Z,1019.9
2023-03-02T15:07:32.185Z,1020
2023-03-02T15:08:48.373Z,1019.9
2023-03-02T15:10:04.555Z,1019.9
2023-03-02T15:11:20.751Z,1019.9
2023-03-02T15:12:36.928Z,1019.9
2023-03-02T15:13:52.803Z,1019.9
2023-03-02T15:15:09.313Z,1019.9
2023-03-02T15:16:25.481Z,1019.9
2023-03-02T15:17:41.688Z,1020
2023-03-02T15:18:57.553Z,1019.9
2023-03-02T15:20:13.070Z,1019.9
2023-03-02T15:21:29.245Z,1019.9
2023-03-02T15:22:45.435Z,1019.9
2023-03-02T15:24:01.630Z,1019.9
2023-03-02T15:25:17.495Z,1020
2023-03-02T15:26:33.688Z,1019.9
2023-03-02T15:27:50.194Z,1019.9
2023-03-02T15:29:06.072Z,1020
2023-03-02T15:30:22.259Z,1020
2023-03-02T15:31:38.752Z,1019.9
2023-03-02T15:32:54.942Z,1019.9
2023-03-02T15:34:11.137Z,1019.9
2023-03-02T15:35:27.310Z,1019.9
2023-03-02T15:36:42.457Z,1019.8
2023-03-02T15:37:58.706Z,1020
2023-03-02T15:39:14.888Z,1019.8
2023-03-02T15:40:31.024Z,1019.9
2023-03-02T15:41:47.276Z,1019.9
2023-03-02T15:43:03.461Z,1019.9
2023-03-02T15:44:19.647Z,1019.9
2023-03-02T15:45:35.833Z,1019.9
2023-03-02T15:46:52.020Z,1019.9
2023-03-02T15:48:08.210Z,1019.9
2023-03-02T15:49:24.344Z,1019.9
2023-03-02T15:50:40.531Z,1019.8
2023-03-02T15:51:56.709Z,1019.8
2023-03-02T15:53:11.966Z,1019.8
2023-03-02T15:54:28.169Z,1019.8